This is the latest recevied weather packets stored in our database for station/object AA0PB. If no packets are shown the sender has not sent any weather packets the latest 10 day(s).
| Time | Temp. | Humidity | Pressure | Rain* | Wind** | Luminosity | Snow |
|---|---|---|---|---|---|---|---|
| 1777767507 | 22.22° C | 64% | 1011.9 hPa | 0 mm | - | 158 W/m² | - |
| 1777767203 | 21.67° C | 63% | 1011.7 hPa | 0 mm | - | 182 W/m² | - |
| 1777766901 | 22.22° C | 62% | 1011.7 hPa | 0 mm | - | 202 W/m² | - |
| 1777766598 | 22.22° C | 62% | 1011.8 hPa | 0 mm | - | 210 W/m² | - |
| 1777766295 | 22.22° C | 62% | 1011.9 hPa | 0 mm | - | 215 W/m² | - |
| 1777765992 | 22.22° C | 62% | 1011.7 hPa | 0 mm | - | 250 W/m² | - |
| 1777765689 | 21.67° C | 63% | 1012 hPa | 0 mm | - | 263 W/m² | - |
| 1777765386 | 23.33° C | 59% | 1012 hPa | 0 mm | - | 299 W/m² | - |
| 1777765082 | 22.78° C | 60% | 1012.3 hPa | 0 mm | - | 258 W/m² | - |
| 1777764779 | 22.22° C | 60% | 1012.4 hPa | 0 mm | - | 343 W/m² | - |
| 1777764475 | 21.67° C | 64% | 1012.4 hPa | 0 mm | - | 307 W/m² | - |
| 1777764172 | 22.22° C | 62% | 1012.4 hPa | 0 mm | - | 355 W/m² | - |
| 1777763869 | 21.11° C | 62% | 1012.4 hPa | 0 mm | - | 374 W/m² | - |
| 1777763566 | 21.11° C | 62% | 1012.5 hPa | 0 mm | - | 328 W/m² | - |
| 1777763265 | 21.11° C | 63% | 1012.5 hPa | 0 mm | - | 415 W/m² | - |
| 1777762963 | 20.56° C | 64% | 1012.6 hPa | 0 mm | - | 287 W/m² | - |
| 1777762659 | 20.56° C | 64% | 1012.7 hPa | 0 mm | - | 227 W/m² | - |
| 1777762356 | 20.56° C | 64% | 1012.8 hPa | 0 mm | - | 271 W/m² | - |
| 1777762052 | 20.56° C | 64% | 1012.8 hPa | 0 mm | - | 308 W/m² | - |
| 1777761749 | 21.11° C | 64% | 1012.9 hPa | 0 mm | - | 405 W/m² | - |
| 1777761446 | 20° C | 66% | 1013 hPa | 0 mm | - | 322 W/m² | - |
| 1777761144 | 20° C | 64% | 1013.4 hPa | 0 mm | - | 291 W/m² | - |
| 1777760842 | 20.56° C | 64% | 1013.2 hPa | 0 mm | - | 277 W/m² | - |
| 1777760538 | 21.11° C | 62% | 1013.3 hPa | 0 mm | - | 265 W/m² | - |
| 1777760234 | 21.11° C | 63% | 1013.4 hPa | 0 mm | - | 316 W/m² | - |
* Rain latest hour (hover to see other rain measurements)
** Current wind speed in m/s (hover to see current wind gust speed)